createdAt,value
2019-02-27T00:02:32.640Z,99884.87
2019-02-27T00:05:20.076Z,99877.46
2019-02-27T00:08:07.641Z,99877.67
2019-02-27T00:10:55.120Z,99868.47
2019-02-27T00:13:42.344Z,99869.42
2019-02-27T00:16:29.661Z,99871.19
2019-02-27T00:19:17.287Z,99861.90
2019-02-27T00:22:06.078Z,99872.57
2019-02-27T00:24:53.570Z,99867.23
2019-02-27T00:27:41.198Z,99860.88
2019-02-27T00:30:29.247Z,99858.85
2019-02-27T00:33:16.775Z,99857.86
2019-02-27T00:36:04.291Z,99859.28
2019-02-27T00:38:51.307Z,99863.66
2019-02-27T00:41:38.934Z,99854.53
2019-02-27T00:44:26.051Z,99858.56
2019-02-27T00:47:13.884Z,99867.17
2019-02-27T00:50:05.808Z,99861.12
2019-02-27T00:52:51.071Z,99858.69
2019-02-27T00:55:39.523Z,99860.24
2019-02-27T00:58:27.660Z,99867.17
2019-02-27T01:01:15.204Z,99859.03
2019-02-27T01:04:02.486Z,99857.17
2019-02-27T01:06:49.749Z,99853.25
2019-02-27T01:09:39.579Z,99857.98
2019-02-27T01:12:26.862Z,99850.38
2019-02-27T01:15:15.088Z,99854.20
2019-02-27T01:18:02.103Z,99848.00
2019-02-27T01:20:49.834Z,99850.35
2019-02-27T01:23:37.362Z,99848.69
2019-02-27T01:26:24.990Z,99849.75
2019-02-27T01:29:12.215Z,99850.86
2019-02-27T01:31:59.737Z,99850.20
2019-02-27T01:34:47.261Z,99840.53
2019-02-27T01:37:34.892Z,99843.48
2019-02-27T01:40:22.829Z,99848.45
2019-02-27T01:43:10.150Z,99843.22
2019-02-27T01:45:57.574Z,99838.41
2019-02-27T01:48:45.415Z,99829.09
2019-02-27T01:51:32.664Z,99817.19
2019-02-27T01:54:20.256Z,99822.91
2019-02-27T01:57:07.785Z,99810.28
2019-02-27T01:59:55.208Z,99811.58
2019-02-27T02:02:42.632Z,99800.33
2019-02-27T02:05:29.854Z,99801.28
2019-02-27T02:08:18.197Z,99802.67
2019-02-27T02:11:05.829Z,99798.68
2019-02-27T02:14:12.696Z,99790.75
2019-02-27T02:17:07.472Z,99788.15
2019-02-27T02:20:17.251Z,99760.16
2019-02-27T02:23:29.351Z,99788.39
2019-02-27T02:26:35.635Z,99785.28
2019-02-27T02:29:41.171Z,99774.69
2019-02-27T02:32:52.379Z,99773.84
2019-02-27T02:35:51.195Z,99767.28
2019-02-27T02:39:10.817Z,99766.13
2019-02-27T02:42:04.160Z,99758.32
2019-02-27T02:45:11.369Z,99769.16
2019-02-27T02:48:19.994Z,99776.42
2019-02-27T02:51:29.945Z,99772.14
2019-02-27T02:54:23.965Z,99776.41
2019-02-27T02:57:35.896Z,99769.80
2019-02-27T03:00:48.025Z,99772.19
2019-02-27T03:03:44.275Z,99775.52
2019-02-27T03:06:44.173Z,99777.35
2019-02-27T03:09:40.806Z,99777.84
2019-02-27T03:12:36.945Z,99767.25
2019-02-27T03:15:33.802Z,99761.30
2019-02-27T03:18:30.478Z,99766.49
2019-02-27T03:21:35.666Z,99764.28
2019-02-27T03:24:48.792Z,99763.63
2019-02-27T03:27:48.303Z,99765.20
2019-02-27T03:30:47.708Z,99762.13
2019-02-27T03:34:05.457Z,99753.88
2019-02-27T03:37:14.183Z,99754.80
2019-02-27T03:40:20.429Z,99748.41
2019-02-27T03:43:30.890Z,99751.84
2019-02-27T03:46:40.771Z,99748.41
2019-02-27T03:49:45.263Z,99760.29
2019-02-27T03:52:41.598Z,99752.28
2019-02-27T03:55:37.940Z,99748.29
2019-02-27T03:58:31.817Z,99743.00
2019-02-27T04:01:34.797Z,99740.05
2019-02-27T04:04:34.614Z,99737.08
2019-02-27T04:07:47.993Z,99740.61
2019-02-27T04:10:35.853Z,99734.48
2019-02-27T04:13:26.396Z,99732.27
2019-02-27T04:16:12.264Z,99730.38
2019-02-27T04:19:02.726Z,99732.91
2019-02-27T04:21:48.850Z,99731.05
2019-02-27T04:24:36.187Z,99721.50
2019-02-27T04:27:23.495Z,99728.00
2019-02-27T04:30:14.809Z,99729.30
2019-02-27T04:32:59.982Z,99722.61
2019-02-27T04:35:47.609Z,99724.26
2019-02-27T04:38:35.032Z,99714.52
2019-02-27T04:41:22.463Z,99714.17
2019-02-27T04:44:10.395Z,99716.95
2019-02-27T04:46:57.712Z,99713.52
2019-02-27T04:49:45.240Z,99706.18
2019-02-27T04:52:32.870Z,99708.86
2019-02-27T04:55:20.089Z,99706.83
2019-02-27T04:58:09.009Z,99700.98
2019-02-27T05:00:59.181Z,99697.27
2019-02-27T05:03:45.230Z,99704.23
2019-02-27T05:06:32.654Z,99694.11
2019-02-27T05:09:20.282Z,99695.03
2019-02-27T05:12:08.115Z,99687.87
2019-02-27T05:14:55.743Z,99687.53
2019-02-27T05:17:43.166Z,99684.55
2019-02-27T05:20:31.006Z,99683.83
2019-02-27T05:23:18.323Z,99683.26
2019-02-27T05:26:06.156Z,99685.20
2019-02-27T05:28:53.587Z,99679.55
2019-02-27T05:31:41.211Z,99690.48
2019-02-27T05:34:28.531Z,99691.31
2019-02-27T05:37:15.981Z,99690.56
2019-02-27T05:40:04.977Z,99690.73
2019-02-27T05:42:52.341Z,99690.67
2019-02-27T05:45:39.968Z,99692.70
2019-02-27T05:48:27.617Z,99689.45
2019-02-27T05:51:15.021Z,99684.70
2019-02-27T05:54:02.641Z,99685.83
2019-02-27T05:56:50.586Z,99681.16
2019-02-27T05:59:37.908Z,99682.36
2019-02-27T06:02:25.585Z,99676.34
2019-02-27T06:05:13.390Z,99678.76
2019-02-27T06:08:02.238Z,99676.34
2019-02-27T06:10:49.552Z,99684.33
2019-02-27T06:13:37.331Z,99684.04
2019-02-27T06:16:25.019Z,99688.22
2019-02-27T06:19:13.460Z,99683.22
2019-02-27T06:22:00.804Z,99684.05
2019-02-27T06:24:48.411Z,99683.56
2019-02-27T06:27:37.162Z,99679.52
2019-02-27T06:30:24.895Z,99679.50
2019-02-27T06:33:12.433Z,99675.43
2019-02-27T06:35:59.950Z,99672.92
2019-02-27T06:38:47.786Z,99672.27
2019-02-27T06:41:35.007Z,99671.91
2019-02-27T06:44:22.736Z,99675.81
2019-02-27T06:47:09.751Z,99678.78
2019-02-27T06:49:57.275Z,99678.98
2019-02-27T06:52:45.106Z,99677.88
2019-02-27T06:55:33.834Z,99689.19
2019-02-27T06:58:21.286Z,99682.89
2019-02-27T07:01:09.669Z,99675.27
2019-02-27T07:03:57.468Z,99671.76
2019-02-27T07:06:44.582Z,99678.17
2019-02-27T07:09:32.212Z,99676.68
2019-02-27T07:12:21.908Z,99673.70
2019-02-27T07:15:17.618Z,99666.88
2019-02-27T07:18:06.075Z,99666.08
2019-02-27T07:20:55.680Z,99666.73
2019-02-27T07:23:43.948Z,99662.41
2019-02-27T07:26:31.195Z,99667.62
2019-02-27T07:29:21.753Z,99666.27
2019-02-27T07:32:07.583Z,99585.23
2019-02-27T07:34:55.107Z,99662.94
2019-02-27T07:37:46.837Z,99667.50
2019-02-27T07:40:32.024Z,99655.44
2019-02-27T07:43:19.837Z,99660.28
2019-02-27T07:46:07.362Z,99666.92
2019-02-27T07:48:56.700Z,99652.87
2019-02-27T07:51:43.850Z,99650.98
2019-02-27T07:54:31.488Z,99654.62
2019-02-27T07:57:19.001Z,99643.36
2019-02-27T08:00:21.991Z,99646.81
2019-02-27T08:03:12.951Z,99643.22
2019-02-27T08:05:59.822Z,99645.13
2019-02-27T08:08:48.768Z,99645.13
2019-02-27T08:11:36.092Z,99643.66
2019-02-27T08:14:23.513Z,99635.52
2019-02-27T08:17:17.754Z,99631.49
2019-02-27T08:19:59.894Z,99636.56
2019-02-27T08:22:47.325Z,99633.72
2019-02-27T08:25:34.747Z,99640.27
2019-02-27T08:28:21.864Z,99631.59
2019-02-27T08:31:09.290Z,99639.41
2019-02-27T08:33:56.523Z,99635.69
2019-02-27T08:36:44.142Z,99627.02
2019-02-27T08:39:31.872Z,99632.80
2019-02-27T08:42:19.193Z,99636.27
2019-02-27T08:45:18.938Z,99632.56
2019-02-27T08:47:58.115Z,99634.73
2019-02-27T08:50:45.561Z,99626.55
2019-02-27T08:53:34.447Z,99620.30
2019-02-27T08:56:21.532Z,99616.14
2019-02-27T08:59:08.758Z,99611.94
2019-02-27T09:01:56.491Z,99607.23
2019-02-27T09:04:45.411Z,99603.22
2019-02-27T09:07:33.886Z,99601.35
2019-02-27T09:10:28.103Z,99595.16
2019-02-27T09:13:15.146Z,99588.31
2019-02-27T09:16:03.027Z,99576.47
2019-02-27T09:18:50.553Z,99571.32
2019-02-27T09:21:38.082Z,99573.79
2019-02-27T09:24:26.396Z,99569.16
2019-02-27T09:27:13.744Z,99569.55
2019-02-27T09:30:02.686Z,99573.58
2019-02-27T09:32:49.618Z,99565.69
2019-02-27T09:35:38.768Z,99554.12
2019-02-27T09:38:26.104Z,99554.77
2019-02-27T09:41:13.845Z,99547.47
2019-02-27T09:44:01.547Z,99545.78
2019-02-27T09:46:49.911Z,99535.30
2019-02-27T09:49:40.819Z,99538.55
2019-02-27T09:52:27.868Z,99532.88
2019-02-27T09:55:20.173Z,99533.19
2019-02-27T09:58:10.068Z,99537.05
2019-02-27T10:01:00.280Z,99534.66
2019-02-27T10:03:47.771Z,99539.66
2019-02-27T10:06:34.887Z,99533.20
2019-02-27T10:09:22.620Z,99533.80
2019-02-27T10:12:10.039Z,99533.96
2019-02-27T10:14:57.361Z,99522.27
2019-02-27T10:17:45.401Z,99525.84
2019-02-27T10:20:36.826Z,99525.21
2019-02-27T10:23:21.989Z,99526.65
2019-02-27T10:26:09.927Z,99526.50
2019-02-27T10:28:57.369Z,99521.75
2019-02-27T10:31:45.081Z,99531.50
2019-02-27T10:34:32.402Z,99517.79
2019-02-27T10:37:20.302Z,99506.73
2019-02-27T10:40:25.075Z,99504.05
2019-02-27T10:43:12.392Z,99500.31
2019-02-27T10:45:59.814Z,99495.78
2019-02-27T10:48:47.657Z,99491.89
2019-02-27T10:51:34.872Z,99479.11
2019-02-27T10:54:22.188Z,99475.61
2019-02-27T10:57:09.716Z,99464.65
2019-02-27T10:59:57.035Z,99461.13
2019-02-27T11:02:47.451Z,99452.31
2019-02-27T11:05:38.648Z,99452.33
2019-02-27T11:08:28.894Z,99450.95
2019-02-27T11:11:16.283Z,99443.13
2019-02-27T11:14:03.374Z,99442.02
2019-02-27T11:16:51.106Z,99435.25
2019-02-27T11:19:38.221Z,99435.61
2019-02-27T11:22:25.755Z,99431.37
2019-02-27T11:25:15.994Z,99423.00
2019-02-27T11:28:03.460Z,99425.28
2019-02-27T11:30:51.133Z,99423.05
2019-02-27T11:33:39.131Z,99417.12
2019-02-27T11:36:26.249Z,99405.76
2019-02-27T11:39:13.882Z,99408.70
2019-02-27T11:42:01.089Z,99401.43
2019-02-27T11:44:49.622Z,99404.48
2019-02-27T11:47:37.380Z,99401.69
2019-02-27T11:50:25.107Z,99406.24
2019-02-27T11:53:13.052Z,99394.56
2019-02-27T11:56:00.675Z,99395.54
2019-02-27T11:58:48.715Z,99388.38
2019-02-27T12:01:36.446Z,99381.08
2019-02-27T12:04:23.564Z,99379.41
2019-02-27T12:07:12.308Z,99367.36
2019-02-27T12:09:59.847Z,99364.41
2019-02-27T12:12:46.970Z,99363.63
2019-02-27T12:15:34.385Z,99351.94
2019-02-27T12:18:23.642Z,99348.81
2019-02-27T12:21:11.486Z,99340.70
2019-02-27T12:23:58.805Z,99334.25
2019-02-27T12:26:46.536Z,99327.00
2019-02-27T12:29:33.873Z,99320.88
2019-02-27T12:32:21.927Z,99320.17
2019-02-27T12:35:12.997Z,99310.41
2019-02-27T12:38:00.441Z,99316.45
2019-02-27T12:40:48.079Z,99298.09
2019-02-27T12:43:35.412Z,99293.53
2019-02-27T12:46:23.013Z,99286.38
2019-02-27T12:49:10.848Z,99284.02
2019-02-27T12:51:58.581Z,99275.31
2019-02-27T12:54:48.364Z,99275.16
2019-02-27T12:57:35.272Z,99263.45
2019-02-27T13:00:25.767Z,99256.42
2019-02-27T13:03:12.882Z,99248.38
2019-02-27T13:06:00.976Z,99241.64
2019-02-27T13:08:52.607Z,99242.03
2019-02-27T13:11:39.122Z,99233.31
2019-02-27T13:14:27.394Z,99229.42
2019-02-27T13:17:15.037Z,99224.33
2019-02-27T13:20:03.233Z,99222.48
2019-02-27T13:22:50.994Z,99216.48
2019-02-27T13:25:38.115Z,99210.41
2019-02-27T13:28:25.441Z,99207.24
2019-02-27T13:31:13.676Z,99205.55
2019-02-27T13:34:01.722Z,99199.28
2019-02-27T13:36:49.143Z,99191.09
2019-02-27T13:39:36.977Z,99184.61
2019-02-27T13:42:24.296Z,99184.48
2019-02-27T13:45:20.393Z,99181.11
2019-02-27T13:48:07.953Z,99180.36
2019-02-27T13:50:56.625Z,99175.12
2019-02-27T13:53:44.896Z,99157.03
2019-02-27T13:56:33.499Z,99155.48
2019-02-27T13:59:20.516Z,99148.55
2019-02-27T14:02:08.458Z,99151.09
2019-02-27T14:04:57.294Z,99142.41
2019-02-27T14:07:45.347Z,99136.27
2019-02-27T14:10:34.228Z,99134.28
2019-02-27T14:13:21.532Z,99126.88
2019-02-27T14:16:08.964Z,99123.55
2019-02-27T14:18:56.687Z,99114.58
2019-02-27T14:21:44.213Z,99114.73
2019-02-27T14:24:31.232Z,99115.75
2019-02-27T14:27:18.546Z,99101.47
2019-02-27T14:30:12.219Z,99099.48
2019-02-27T14:32:59.746Z,99093.55
2019-02-27T14:35:47.577Z,99093.13
2019-02-27T14:38:34.899Z,99091.70
2019-02-27T14:41:22.223Z,99093.17
2019-02-27T14:44:09.547Z,99081.27
2019-02-27T14:46:57.283Z,99079.41
2019-02-27T14:49:44.600Z,99073.11
2019-02-27T14:52:32.225Z,99071.59
2019-02-27T14:55:20.731Z,99062.68
2019-02-27T14:58:08.099Z,99063.20
2019-02-27T15:00:55.835Z,99054.46
2019-02-27T15:03:43.370Z,99051.00
2019-02-27T15:06:30.883Z,99043.16
2019-02-27T15:09:18.298Z,99033.95
2019-02-27T15:12:06.052Z,99039.92
2019-02-27T15:14:55.363Z,99036.20
2019-02-27T15:17:42.732Z,99035.95
2019-02-27T15:20:30.786Z,99029.97
2019-02-27T15:23:17.888Z,99031.36
2019-02-27T15:26:05.824Z,99022.79
2019-02-27T15:28:53.350Z,99024.72
2019-02-27T15:31:40.877Z,99020.22
2019-02-27T15:34:28.611Z,99023.55
2019-02-27T15:37:16.238Z,99021.42
2019-02-27T15:40:05.506Z,99011.09
2019-02-27T15:42:52.831Z,99010.52
2019-02-27T15:45:47.589Z,99005.53
2019-02-27T15:48:28.802Z,98995.13
2019-02-27T15:51:15.939Z,98988.37
2019-02-27T15:54:03.603Z,98993.17
2019-02-27T15:56:50.881Z,98994.56
2019-02-27T15:59:41.748Z,98985.67
2019-02-27T16:02:29.200Z,98984.41
2019-02-27T16:05:16.524Z,98977.24
2019-02-27T16:08:03.654Z,98977.06
2019-02-27T16:10:54.734Z,98969.73
2019-02-27T16:13:40.329Z,98968.25
2019-02-27T16:16:27.448Z,98970.70
2019-02-27T16:19:14.567Z,98970.36
2019-02-27T16:22:02.297Z,98970.95
2019-02-27T16:24:50.028Z,98965.96
2019-02-27T16:27:38.758Z,98970.42
2019-02-27T16:30:37.205Z,98971.66
2019-02-27T16:33:24.710Z,98966.66
2019-02-27T16:36:12.913Z,98966.91
2019-02-27T16:39:07.013Z,98966.73
2019-02-27T16:41:50.141Z,98970.58
2019-02-27T16:44:37.359Z,98970.35
2019-02-27T16:47:24.886Z,98966.00
2019-02-27T16:50:17.942Z,98965.81
2019-02-27T16:53:05.469Z,98958.51
2019-02-27T16:55:52.996Z,98954.80
2019-02-27T16:58:40.420Z,98958.26
2019-02-27T17:01:29.522Z,98949.78
2019-02-27T17:04:16.908Z,98949.23
2019-02-27T17:07:04.471Z,98946.50
2019-02-27T17:09:51.450Z,98949.06
2019-02-27T17:12:40.851Z,98944.83
2019-02-27T17:15:28.045Z,98947.08
2019-02-27T17:18:15.261Z,98942.03
2019-02-27T17:21:03.091Z,98936.19
2019-02-27T17:23:50.514Z,98938.09
2019-02-27T17:26:39.159Z,98926.75
2019-02-27T17:29:26.807Z,98930.06
2019-02-27T17:32:14.328Z,98935.93
2019-02-27T17:35:01.447Z,98932.78
2019-02-27T17:37:49.264Z,98938.00
2019-02-27T17:40:37.510Z,98929.06
2019-02-27T17:43:28.526Z,98935.09
2019-02-27T17:46:14.005Z,98928.70
2019-02-27T17:49:01.134Z,98921.27
2019-02-27T17:51:49.566Z,98923.80
2019-02-27T17:54:37.404Z,98916.27
2019-02-27T17:57:25.244Z,98909.11
2019-02-27T18:00:44.321Z,98899.59
2019-02-27T18:03:31.941Z,98889.33
2019-02-27T18:06:19.156Z,98881.27
2019-02-27T18:09:07.244Z,98884.73
2019-02-27T18:11:54.444Z,98881.98
2019-02-27T18:14:45.569Z,98871.81
2019-02-27T18:17:34.674Z,98868.62
2019-02-27T18:20:24.404Z,98863.08
2019-02-27T18:23:09.539Z,98861.67
2019-02-27T18:25:56.656Z,98855.98
2019-02-27T18:28:44.283Z,98856.03
2019-02-27T18:31:32.117Z,98851.16
2019-02-27T18:34:21.597Z,98850.63
2019-02-27T18:37:08.400Z,98849.44
2019-02-27T18:39:55.822Z,98844.39
2019-02-27T18:42:43.774Z,98848.64
2019-02-27T18:45:30.775Z,98842.05
2019-02-27T18:48:18.317Z,98842.01
2019-02-27T18:51:05.738Z,98836.94
2019-02-27T18:53:53.363Z,98835.72
2019-02-27T18:56:40.882Z,98834.74
2019-02-27T18:59:29.657Z,98827.67
2019-02-27T19:02:20.602Z,98834.13
2019-02-27T19:05:08.445Z,98834.34
2019-02-27T19:07:56.110Z,98834.40
2019-02-27T19:10:43.736Z,98832.75
2019-02-27T19:13:31.780Z,98828.16
2019-02-27T19:16:20.729Z,98822.07
2019-02-27T19:19:08.874Z,98819.44
2019-02-27T19:21:56.404Z,98816.16
2019-02-27T19:24:44.337Z,98813.34
2019-02-27T19:27:31.867Z,98814.84
2019-02-27T19:30:20.415Z,98808.11
2019-02-27T19:33:08.340Z,98805.63
2019-02-27T19:35:56.501Z,98801.52
2019-02-27T19:38:47.560Z,98793.48
2019-02-27T19:41:38.746Z,98793.97
2019-02-27T19:44:22.864Z,98784.91
2019-02-27T19:47:10.211Z,98777.84
2019-02-27T19:49:57.418Z,98779.34
2019-02-27T19:52:44.928Z,98776.37
2019-02-27T19:55:32.865Z,98772.42
2019-02-27T19:58:20.391Z,98765.33
2019-02-27T20:01:09.763Z,98758.59
2019-02-27T20:03:57.601Z,98768.59
2019-02-27T20:06:44.714Z,98763.52
2019-02-27T20:09:32.234Z,98762.02
2019-02-27T20:12:19.765Z,98761.86
2019-02-27T20:15:11.028Z,98761.89
2019-02-27T20:17:59.427Z,98762.55
2019-02-27T20:20:46.954Z,98754.83
2019-02-27T20:23:34.379Z,98762.69
2019-02-27T20:26:21.701Z,98761.05
2019-02-27T20:29:08.824Z,98753.47
2019-02-27T20:31:55.733Z,98751.49
2019-02-27T20:34:45.919Z,98751.80
2019-02-27T20:37:37.149Z,98738.65
2019-02-27T20:40:23.839Z,98736.14
2019-02-27T20:43:11.366Z,98721.36
2019-02-27T20:45:59.003Z,98711.54
2019-02-27T20:48:46.419Z,98713.53
2019-02-27T20:51:33.638Z,98710.59
2019-02-27T20:54:20.741Z,98706.64
2019-02-27T20:57:08.946Z,98704.05
2019-02-27T21:00:00.525Z,98706.02
2019-02-27T21:02:44.974Z,98702.91
2019-02-27T21:05:32.992Z,98701.08
2019-02-27T21:08:20.231Z,98698.94
2019-02-27T21:11:08.679Z,98695.13
2019-02-27T21:13:55.591Z,98690.50
2019-02-27T21:16:45.641Z,98688.17
2019-02-27T21:19:33.885Z,98687.53
2019-02-27T21:22:21.448Z,98679.98
2019-02-27T21:25:12.046Z,98669.11
2019-02-27T21:28:00.292Z,98665.17
2019-02-27T21:30:51.782Z,98669.11
2019-02-27T21:33:36.674Z,98666.14
2019-02-27T21:36:24.144Z,98665.98
2019-02-27T21:39:11.529Z,98659.56
2019-02-27T21:41:59.053Z,98652.36
2019-02-27T21:44:46.478Z,98653.88
2019-02-27T21:47:34.702Z,98660.59
2019-02-27T21:50:23.889Z,98655.00
2019-02-27T21:53:11.428Z,98652.22
2019-02-27T21:55:59.038Z,98653.19
2019-02-27T21:58:47.600Z,98648.77
2019-02-27T22:01:35.021Z,98642.05
2019-02-27T22:04:22.848Z,98639.60
2019-02-27T22:07:10.679Z,98637.31
2019-02-27T22:09:57.903Z,98633.74
2019-02-27T22:12:45.324Z,98632.41
2019-02-27T22:15:32.852Z,98632.28
2019-02-27T22:18:20.278Z,98630.45
2019-02-27T22:21:07.596Z,98621.25
2019-02-27T22:23:55.331Z,98621.41
2019-02-27T22:26:42.343Z,98623.85
2019-02-27T22:29:30.382Z,98623.14
2019-02-27T22:32:17.806Z,98619.19
2019-02-27T22:35:06.304Z,98612.28
2019-02-27T22:37:53.675Z,98602.77
2019-02-27T22:40:41.305Z,98595.22
2019-02-27T22:43:28.836Z,98595.52
2019-02-27T22:46:16.451Z,98589.62
2019-02-27T22:49:04.402Z,98589.13
2019-02-27T22:51:51.825Z,98578.15
2019-02-27T22:54:39.246Z,98572.56
2019-02-27T22:57:26.978Z,98567.49
2019-02-27T23:00:42.965Z,98574.16
2019-02-27T23:03:35.414Z,98571.05
2019-02-27T23:06:22.838Z,98573.82
2019-02-27T23:09:11.578Z,98568.91
2019-02-27T23:11:59.222Z,98565.98
2019-02-27T23:14:47.059Z,98565.04
2019-02-27T23:17:34.787Z,98556.03
2019-02-27T23:20:21.905Z,98552.56
2019-02-27T23:23:09.123Z,98553.72
2019-02-27T23:25:56.445Z,98546.64
2019-02-27T23:28:44.074Z,98540.55
2019-02-27T23:31:32.609Z,98536.45
2019-02-27T23:34:19.947Z,98528.75
2019-02-27T23:37:06.959Z,98526.60
2019-02-27T23:39:54.399Z,98521.70
2019-02-27T23:42:42.218Z,98513.16
2019-02-27T23:45:29.235Z,98512.84
2019-02-27T23:48:16.762Z,98510.38
2019-02-27T23:51:04.798Z,98509.89
2019-02-27T23:53:52.328Z,98503.02
2019-02-27T23:56:39.859Z,98507.42
2019-02-27T23:59:26.972Z,98503.97
